createdAt,value
2022-10-04T00:01:52.931Z,57.72
2022-10-04T00:04:26.985Z,57.85
2022-10-04T00:07:03.091Z,57.67
2022-10-04T00:09:40.733Z,58.03
2022-10-04T00:12:20.839Z,57.77
2022-10-04T00:14:51.620Z,58.17
2022-10-04T00:17:26.830Z,57.91
2022-10-04T00:19:56.395Z,57.65
2022-10-04T00:22:31.075Z,57.84
2022-10-04T00:25:17.536Z,58.12
2022-10-04T00:28:25.260Z,58.15
2022-10-04T00:31:19.963Z,58.49
2022-10-04T00:33:51.183Z,58.62
2022-10-04T00:36:54.337Z,58.62
2022-10-04T00:39:38.427Z,58.98
2022-10-04T00:42:26.086Z,59.00
2022-10-04T00:45:00.838Z,59.12
2022-10-04T00:47:34.446Z,59.06
2022-10-04T00:50:18.203Z,59.08
2022-10-04T00:52:51.672Z,59.12
2022-10-04T00:55:28.607Z,59.15
2022-10-04T00:58:01.579Z,59.39
2022-10-04T01:00:33.094Z,59.31
2022-10-04T01:03:07.091Z,59.41
2022-10-04T01:05:39.744Z,59.37
2022-10-04T01:08:13.080Z,59.47
2022-10-04T01:10:47.538Z,59.63
2022-10-04T01:13:20.996Z,59.66
2022-10-04T01:15:56.796Z,59.62
2022-10-04T01:18:33.951Z,59.58
2022-10-04T01:21:08.212Z,59.81
2022-10-04T01:23:42.976Z,59.69
2022-10-04T01:26:44.583Z,60.06
2022-10-04T01:29:16.900Z,59.94
2022-10-04T01:31:47.669Z,60.04
2022-10-04T01:34:18.674Z,60.19
2022-10-04T01:36:50.902Z,60.14
2022-10-04T01:39:22.463Z,60.22
2022-10-04T01:41:56.968Z,60.42
2022-10-04T01:44:32.758Z,60.34
2022-10-04T01:47:04.800Z,60.42
2022-10-04T01:49:38.450Z,60.31
2022-10-04T01:52:13.532Z,60.27
2022-10-04T01:54:48.361Z,60.21
2022-10-04T01:57:20.825Z,60.03
2022-10-04T01:59:57.035Z,59.91
2022-10-04T02:02:34.389Z,59.87
2022-10-04T02:05:06.546Z,59.84
2022-10-04T02:07:41.514Z,59.82
2022-10-04T02:10:17.319Z,59.86
2022-10-04T02:12:50.215Z,59.97
2022-10-04T02:15:21.351Z,59.84
2022-10-04T02:17:51.265Z,59.88
2022-10-04T02:20:23.460Z,59.91
2022-10-04T02:23:02.681Z,59.91
2022-10-04T02:25:32.459Z,60.02
2022-10-04T02:28:02.288Z,60.01
2022-10-04T02:30:36.872Z,60.19
2022-10-04T02:33:06.411Z,60.11
2022-10-04T02:35:38.691Z,60.13
2022-10-04T02:38:15.589Z,60.18
2022-10-04T02:40:50.710Z,60.26
2022-10-04T02:43:24.776Z,60.34
2022-10-04T02:45:59.581Z,60.26
2022-10-04T02:48:36.267Z,60.24
2022-10-04T02:51:18.252Z,60.30
2022-10-04T02:54:02.286Z,60.33
2022-10-04T02:56:33.615Z,60.23
2022-10-04T02:59:04.943Z,60.30
2022-10-04T03:01:52.560Z,60.40
2022-10-04T03:04:24.183Z,60.35
2022-10-04T03:06:55.061Z,60.25
2022-10-04T03:09:29.671Z,60.44
2022-10-04T03:11:59.208Z,60.41
2022-10-04T03:14:29.699Z,60.35
2022-10-04T03:17:03.506Z,60.42
2022-10-04T03:19:34.424Z,60.17
2022-10-04T03:22:08.029Z,60.00
2022-10-04T03:24:46.580Z,59.95
2022-10-04T03:27:20.559Z,60.02
2022-10-04T03:29:50.079Z,60.05
2022-10-04T03:32:20.879Z,59.97
2022-10-04T03:34:56.325Z,59.81
2022-10-04T03:37:27.423Z,59.77
2022-10-04T03:39:58.203Z,59.84
2022-10-04T03:42:30.107Z,59.92
2022-10-04T03:45:02.605Z,59.97
2022-10-04T03:47:35.262Z,60.01
2022-10-04T03:50:13.616Z,60.04
2022-10-04T03:52:47.413Z,60.07
2022-10-04T03:55:17.955Z,59.91
2022-10-04T03:57:52.047Z,59.93
2022-10-04T04:00:21.374Z,60.05
2022-10-04T04:02:56.284Z,60.03
2022-10-04T04:05:29.906Z,59.92
2022-10-04T04:08:07.561Z,59.88
2022-10-04T04:10:39.576Z,59.89
2022-10-04T04:13:21.567Z,59.88
2022-10-04T04:15:51.485Z,59.92
2022-10-04T04:18:22.928Z,59.83
2022-10-04T04:20:58.388Z,59.75
2022-10-04T04:23:32.384Z,59.78
2022-10-04T04:26:19.158Z,59.76
2022-10-04T04:28:51.428Z,59.91
2022-10-04T04:31:24.197Z,59.83
2022-10-04T04:33:59.904Z,59.84
2022-10-04T04:36:30.183Z,60.07
2022-10-04T04:39:27.723Z,60.22
2022-10-04T04:41:56.653Z,60.16
2022-10-04T04:44:26.119Z,60.38
2022-10-04T04:46:56.290Z,60.28
2022-10-04T04:49:25.293Z,60.18
2022-10-04T04:51:54.236Z,59.89
2022-10-04T04:54:24.969Z,59.76
2022-10-04T04:56:56.884Z,62.59
2022-10-04T04:59:28.201Z,65.31
2022-10-04T05:01:57.416Z,61.22
2022-10-04T05:04:28.340Z,60.21
2022-10-04T05:07:05.855Z,60.12
2022-10-04T05:09:37.902Z,60.23
2022-10-04T05:12:13.029Z,59.70
2022-10-04T05:14:47.516Z,59.24
2022-10-04T05:17:20.654Z,59.73
2022-10-04T05:19:50.975Z,59.92
2022-10-04T05:22:24.868Z,60.59
2022-10-04T05:24:56.521Z,60.09
2022-10-04T05:27:30.636Z,59.83
2022-10-04T05:30:06.106Z,59.75
2022-10-04T05:32:48.287Z,58.94
2022-10-04T05:35:20.117Z,58.68
2022-10-04T05:38:03.434Z,59.84
2022-10-04T05:40:44.636Z,59.85
2022-10-04T05:43:29.013Z,60.05
2022-10-04T05:46:21.320Z,60.61
2022-10-04T05:48:54.749Z,60.01
2022-10-04T05:51:27.819Z,59.58
2022-10-04T05:54:01.406Z,58.98
2022-10-04T05:56:49.887Z,58.49
2022-10-04T05:59:36.906Z,58.55
2022-10-04T06:02:17.831Z,58.63
2022-10-04T06:04:59.670Z,58.32
2022-10-04T06:07:34.628Z,57.66
2022-10-04T06:10:29.670Z,56.63
2022-10-04T06:13:05.159Z,55.47
2022-10-04T06:15:57.551Z,55.70
2022-10-04T06:19:00.080Z,55.97
2022-10-04T06:21:30.145Z,56.15
2022-10-04T06:24:06.166Z,56.44
2022-10-04T06:26:43.194Z,56.82
2022-10-04T06:29:20.075Z,57.07
2022-10-04T06:32:49.393Z,57.19
2022-10-04T06:35:38.219Z,57.53
2022-10-04T06:38:40.054Z,61.23
2022-10-04T06:41:59.753Z,61.77
2022-10-04T06:44:44.377Z,59.09
2022-10-04T06:47:32.070Z,57.72
2022-10-04T06:50:14.378Z,57.35
2022-10-04T06:52:58.477Z,57.34
2022-10-04T06:55:52.925Z,57.35
2022-10-04T06:58:57.700Z,57.27
2022-10-04T07:01:30.361Z,56.75
2022-10-04T07:04:08.079Z,56.85
2022-10-04T07:06:43.395Z,56.90
2022-10-04T07:09:22.164Z,56.91
2022-10-04T07:11:56.012Z,56.80
2022-10-04T07:14:32.143Z,56.48
2022-10-04T07:17:05.068Z,56.41
2022-10-04T07:19:39.254Z,56.19
2022-10-04T07:22:30.463Z,56.33
2022-10-04T07:25:14.511Z,56.36
2022-10-04T07:28:17.591Z,55.95
2022-10-04T07:30:52.675Z,55.80
2022-10-04T07:33:25.166Z,55.56
2022-10-04T07:36:01.126Z,55.67
2022-10-04T07:38:32.735Z,55.45
2022-10-04T07:41:12.502Z,55.12
2022-10-04T07:43:51.686Z,55.06
2022-10-04T07:46:44.192Z,54.89
2022-10-04T07:49:18.649Z,54.88
2022-10-04T07:52:12.934Z,54.72
2022-10-04T07:54:52.531Z,54.31
2022-10-04T07:57:28.666Z,54.23
2022-10-04T08:00:06.324Z,54.34
2022-10-04T08:02:47.055Z,54.27
2022-10-04T08:05:22.998Z,53.81
2022-10-04T08:08:16.585Z,53.55
2022-10-04T08:10:57.498Z,53.33
2022-10-04T08:13:38.166Z,53.01
2022-10-04T08:16:23.116Z,52.68
2022-10-04T08:19:10.355Z,52.32
2022-10-04T08:21:49.211Z,52.08
2022-10-04T08:24:26.090Z,52.01
2022-10-04T08:27:12.855Z,51.72
2022-10-04T08:29:58.606Z,51.39
2022-10-04T08:32:43.222Z,51.60
2022-10-04T08:35:33.295Z,51.56
2022-10-04T08:38:24.802Z,51.43
2022-10-04T08:41:44.366Z,50.88
2022-10-04T08:44:44.023Z,50.66
2022-10-04T08:47:58.800Z,50.42
2022-10-04T08:51:08.879Z,50.32
2022-10-04T08:54:21.346Z,50.42
2022-10-04T08:57:05.643Z,49.92
2022-10-04T09:00:13.294Z,49.69
2022-10-04T09:03:11.983Z,49.55
2022-10-04T09:05:59.500Z,49.37
2022-10-04T09:09:18.505Z,49.13
2022-10-04T09:12:07.748Z,48.94
2022-10-04T09:15:01.609Z,48.94
2022-10-04T09:17:46.579Z,48.43
2022-10-04T09:20:38.370Z,48.45
2022-10-04T09:23:24.803Z,48.35
2022-10-04T09:26:13.119Z,48.22
2022-10-04T09:29:22.281Z,48.11
2022-10-04T09:32:30.406Z,47.75
2022-10-04T09:35:31.125Z,47.73
2022-10-04T09:38:21.518Z,47.33
2022-10-04T09:41:06.693Z,46.95
2022-10-04T09:44:02.541Z,46.68
2022-10-04T09:46:56.177Z,46.00
2022-10-04T09:50:06.628Z,45.51
2022-10-04T09:52:47.720Z,45.81
2022-10-04T09:55:34.142Z,46.21
2022-10-04T09:58:33.610Z,45.98
2022-10-04T10:01:11.958Z,45.20
2022-10-04T10:04:19.141Z,45.40
2022-10-04T10:07:20.673Z,44.63
2022-10-04T10:10:19.590Z,44.65
2022-10-04T10:13:37.398Z,45.12
2022-10-04T10:16:22.172Z,44.85
2022-10-04T10:19:07.825Z,45.15
2022-10-04T10:21:51.610Z,44.67
2022-10-04T10:24:58.224Z,43.85
2022-10-04T10:27:49.927Z,43.94
2022-10-04T10:30:26.117Z,44.05
2022-10-04T10:33:43.500Z,43.58
2022-10-04T10:36:52.459Z,43.37
2022-10-04T10:43:20.248Z,43.09
2022-10-04T10:47:02.312Z,42.77
2022-10-04T10:49:51.233Z,42.87
2022-10-04T10:53:04.544Z,42.67
2022-10-04T10:56:16.712Z,42.50
2022-10-04T10:59:13.659Z,43.01
2022-10-04T11:02:15.370Z,42.70
2022-10-04T11:05:20.162Z,42.68
2022-10-04T11:09:13.246Z,42.80
2022-10-04T11:12:05.768Z,42.69
2022-10-04T11:15:20.354Z,42.58
2022-10-04T11:18:18.821Z,42.45
2022-10-04T11:21:25.237Z,42.14
2022-10-04T11:24:23.073Z,42.31
2022-10-04T11:27:24.548Z,42.03
2022-10-04T11:30:13.896Z,41.80
2022-10-04T11:33:28.913Z,41.80
2022-10-04T11:36:16.413Z,41.48
2022-10-04T11:39:08.675Z,41.60
2022-10-04T11:41:53.254Z,41.40
2022-10-04T11:44:43.489Z,41.39
2022-10-04T11:47:28.881Z,41.28
2022-10-04T11:50:16.080Z,41.29
2022-10-04T11:53:02.851Z,41.03
2022-10-04T11:56:03.633Z,39.65
2022-10-04T11:58:49.464Z,39.73
2022-10-04T12:01:46.362Z,39.36
2022-10-04T12:04:58.960Z,39.58
2022-10-04T12:07:45.199Z,39.94
2022-10-04T12:10:25.447Z,40.19
2022-10-04T12:13:20.840Z,39.52
2022-10-04T12:16:16.001Z,38.38
2022-10-04T12:19:12.874Z,38.49
2022-10-04T12:22:00.428Z,39.47
2022-10-04T12:24:50.114Z,39.80
2022-10-04T12:27:59.098Z,39.83
2022-10-04T12:30:43.465Z,39.87
2022-10-04T12:33:29.087Z,39.41
2022-10-04T12:36:16.323Z,38.54
2022-10-04T12:39:23.603Z,38.93
2022-10-04T12:42:11.541Z,38.88
2022-10-04T12:45:10.200Z,38.89
2022-10-04T12:48:14.557Z,38.55
2022-10-04T12:50:52.278Z,38.88
2022-10-04T12:53:34.511Z,38.91
2022-10-04T12:56:29.380Z,38.72
2022-10-04T12:59:26.790Z,38.49
2022-10-04T13:02:07.072Z,38.51
2022-10-04T13:04:45.556Z,38.43
2022-10-04T13:07:36.745Z,38.47
2022-10-04T13:10:25.237Z,38.61
2022-10-04T13:51:03.596Z,35.85
2022-10-04T13:54:01.880Z,34.65
2022-10-04T13:57:02.613Z,34.07
2022-10-04T13:59:41.648Z,34.61
2022-10-04T14:02:40.493Z,34.82
2022-10-04T14:05:44.225Z,33.77
2022-10-04T14:08:40.651Z,34.74
2022-10-04T14:11:31.660Z,35.12
2022-10-04T14:14:25.785Z,34.83
2022-10-04T14:17:24.900Z,34.76
2022-10-04T14:20:23.704Z,34.78
2022-10-04T14:23:20.576Z,34.59
2022-10-04T14:26:24.743Z,34.22
2022-10-04T14:29:28.269Z,34.64
2022-10-04T14:32:23.609Z,35.02
2022-10-04T14:34:59.847Z,35.26
2022-10-04T14:38:08.398Z,35.19
2022-10-04T14:41:10.471Z,35.39
2022-10-04T14:44:10.200Z,35.45
2022-10-04T14:46:55.112Z,35.67
2022-10-04T14:49:41.828Z,35.58
2022-10-04T14:52:33.543Z,35.81
2022-10-04T14:55:17.701Z,35.90
2022-10-04T14:58:00.716Z,35.92
2022-10-04T15:00:33.909Z,36.25
2022-10-04T15:03:19.454Z,36.24
2022-10-04T15:06:10.625Z,36.47
2022-10-04T15:09:01.181Z,36.70
2022-10-04T15:12:21.495Z,36.95
2022-10-04T15:15:04.799Z,37.11
2022-10-04T15:17:39.292Z,37.25
2022-10-04T15:20:24.335Z,37.38
2022-10-04T15:22:57.894Z,37.42
2022-10-04T15:25:42.229Z,37.50
2022-10-04T15:28:33.635Z,37.53
2022-10-04T15:31:12.374Z,37.59
2022-10-04T15:33:56.162Z,37.71
2022-10-04T15:36:57.104Z,37.70
2022-10-04T15:39:58.686Z,37.72
2022-10-04T15:42:32.665Z,37.92
2022-10-04T15:45:26.240Z,37.93
2022-10-04T15:48:30.544Z,38.25
2022-10-04T15:51:11.603Z,38.48
2022-10-04T15:54:05.232Z,39.04
2022-10-04T15:56:49.896Z,39.27
2022-10-04T15:59:32.273Z,39.62
2022-10-04T16:02:25.577Z,39.51
2022-10-04T16:05:14.605Z,39.65
2022-10-04T16:08:03.242Z,39.88
2022-10-04T16:10:58.047Z,39.98
2022-10-04T16:13:45.549Z,40.15
2022-10-04T16:16:47.945Z,40.58
2022-10-04T16:19:32.111Z,40.79
2022-10-04T16:22:15.332Z,40.75
2022-10-04T16:24:50.094Z,40.98
2022-10-04T16:27:37.069Z,40.97
2022-10-04T16:30:26.637Z,41.07
2022-10-04T16:33:12.410Z,41.24
2022-10-04T16:35:46.227Z,41.47
2022-10-04T16:38:25.122Z,41.67
2022-10-04T16:41:10.673Z,41.72
2022-10-04T16:43:52.444Z,41.78
2022-10-04T16:46:30.424Z,42.00
2022-10-04T16:49:04.563Z,44.00
2022-10-04T16:52:05.572Z,43.46
2022-10-04T16:55:03.639Z,42.35
2022-10-04T16:57:31.625Z,42.58
2022-10-04T17:00:21.373Z,42.59
2022-10-04T17:03:13.505Z,42.55
2022-10-04T17:06:03.217Z,42.62
2022-10-04T17:08:49.397Z,42.52
2022-10-04T17:11:45.562Z,42.96
2022-10-04T17:14:43.474Z,43.27
2022-10-04T17:17:23.245Z,43.42
2022-10-04T17:19:56.910Z,43.52
2022-10-04T17:22:37.735Z,43.49
2022-10-04T17:25:22.186Z,43.78
2022-10-04T17:27:56.650Z,43.90
2022-10-04T17:30:28.441Z,43.85
2022-10-04T17:33:17.116Z,44.01
2022-10-04T17:36:18.027Z,44.02
2022-10-04T17:38:58.878Z,44.22
2022-10-04T17:41:43.319Z,44.37
2022-10-04T17:44:33.690Z,44.72
2022-10-04T17:47:13.466Z,44.81
2022-10-04T17:50:19.157Z,44.94
2022-10-04T17:53:12.338Z,45.24
2022-10-04T17:55:49.383Z,45.32
2022-10-04T17:58:23.722Z,45.41
2022-10-04T18:01:02.010Z,45.59
2022-10-04T18:03:38.400Z,45.97
2022-10-04T18:06:20.327Z,46.08
2022-10-04T18:08:56.332Z,46.27
2022-10-04T18:11:32.967Z,46.44
2022-10-04T18:14:10.192Z,46.60
2022-10-04T18:16:50.100Z,46.59
2022-10-04T18:19:38.686Z,46.73
2022-10-04T18:22:14.791Z,46.92
2022-10-04T18:24:44.890Z,46.94
2022-10-04T18:27:23.229Z,46.81
2022-10-04T18:30:12.968Z,46.76
2022-10-04T18:32:48.191Z,46.77
2022-10-04T18:35:26.818Z,46.52
2022-10-04T18:37:59.190Z,47.17
2022-10-04T18:40:33.997Z,47.21
2022-10-04T18:43:24.192Z,47.16
2022-10-04T18:46:03.905Z,47.25
2022-10-04T18:48:44.061Z,47.42
2022-10-04T18:51:27.749Z,47.74
2022-10-04T18:54:16.699Z,47.83
2022-10-04T18:57:00.495Z,47.77
2022-10-04T18:59:57.433Z,47.86
2022-10-04T19:02:35.300Z,48.04
2022-10-04T19:05:16.978Z,47.95
2022-10-04T19:07:54.119Z,48.28
2022-10-04T19:10:32.394Z,48.17
2022-10-04T19:13:24.866Z,48.26
2022-10-04T19:16:24.805Z,47.79
2022-10-04T19:18:58.489Z,47.58
2022-10-04T19:21:55.486Z,47.27
2022-10-04T19:24:47.143Z,47.31
2022-10-04T19:27:26.038Z,47.32
2022-10-04T19:30:11.453Z,47.32
2022-10-04T19:32:56.990Z,47.17
2022-10-04T19:35:42.462Z,47.09
2022-10-04T19:38:30.037Z,47.19
2022-10-04T19:41:13.289Z,47.20
2022-10-04T19:43:54.705Z,47.43
2022-10-04T19:46:42.649Z,47.15
2022-10-04T19:49:34.108Z,47.12
2022-10-04T19:55:25.933Z,46.75
2022-10-04T19:58:04.263Z,46.61
2022-10-04T20:00:37.213Z,46.38
2022-10-04T20:03:26.598Z,46.29
2022-10-04T20:06:03.685Z,46.03
2022-10-04T20:09:23.352Z,46.09
2022-10-04T20:12:31.078Z,45.87
2022-10-04T20:15:46.998Z,45.94
2022-10-04T20:21:28.399Z,45.93
2022-10-04T20:24:01.189Z,45.78
2022-10-04T20:27:00.909Z,45.65
2022-10-04T20:30:05.334Z,45.52
2022-10-04T20:32:57.739Z,45.35
2022-10-04T20:36:01.756Z,45.35
2022-10-04T20:39:20.004Z,45.31
2022-10-04T21:19:48.811Z,44.84
2022-10-04T21:22:37.701Z,44.59
2022-10-04T21:25:28.367Z,44.50
2022-10-04T21:28:38.427Z,44.62
2022-10-04T21:31:10.876Z,44.56
2022-10-04T21:33:47.715Z,44.49
2022-10-04T21:36:20.077Z,44.52
2022-10-04T21:38:53.660Z,44.46
2022-10-04T21:41:22.609Z,44.54
2022-10-04T21:43:51.351Z,44.62
2022-10-04T21:46:20.747Z,44.60
2022-10-04T21:48:49.965Z,44.55
2022-10-04T21:51:18.819Z,44.51
2022-10-04T21:53:47.745Z,44.66
2022-10-04T21:56:16.607Z,44.70
2022-10-04T21:58:45.334Z,44.75
2022-10-04T22:01:17.868Z,44.80
2022-10-04T22:03:46.794Z,44.82
2022-10-04T22:06:15.861Z,44.84
2022-10-04T22:08:44.973Z,44.85
2022-10-04T22:11:14.010Z,44.95
2022-10-04T22:13:44.034Z,44.95
2022-10-04T22:16:13.032Z,44.91
2022-10-04T22:18:41.886Z,44.97
2022-10-04T22:21:10.824Z,45.10
2022-10-04T22:23:42.499Z,45.15
2022-10-04T22:26:13.684Z,45.13
2022-10-04T22:28:45.663Z,45.04
2022-10-04T22:31:16.808Z,45.28
2022-10-04T22:33:47.531Z,45.45
2022-10-04T22:36:20.084Z,45.53
2022-10-04T22:38:56.569Z,45.63
2022-10-04T22:41:29.115Z,45.77
2022-10-04T22:44:03.181Z,45.83
2022-10-04T22:46:37.884Z,45.96
2022-10-04T22:49:11.519Z,46.19
2022-10-04T22:51:42.391Z,46.15
2022-10-04T22:54:13.785Z,46.23
2022-10-04T22:56:42.963Z,46.26
2022-10-04T22:59:13.647Z,46.41
2022-10-04T23:01:43.351Z,46.58
2022-10-04T23:04:19.342Z,46.67
2022-10-04T23:06:48.932Z,46.76
2022-10-04T23:09:18.725Z,46.83
2022-10-04T23:11:47.681Z,46.97
2022-10-04T23:14:16.815Z,47.02
2022-10-04T23:16:46.788Z,47.06
2022-10-04T23:19:18.282Z,47.18
2022-10-04T23:21:48.762Z,47.43
2022-10-04T23:24:20.338Z,47.67
2022-10-04T23:26:55.119Z,47.89
2022-10-04T23:29:27.730Z,48.24
2022-10-04T23:31:57.127Z,48.39
2022-10-04T23:34:29.112Z,48.68
2022-10-04T23:36:58.184Z,48.88
2022-10-04T23:39:30.143Z,48.96
2022-10-04T23:41:59.770Z,49.20
2022-10-04T23:44:34.126Z,49.14
2022-10-04T23:47:10.792Z,49.35
2022-10-04T23:49:40.252Z,49.44
2022-10-04T23:52:18.573Z,49.57
2022-10-04T23:54:48.977Z,49.87
2022-10-04T23:57:22.207Z,50.11
2022-10-04T23:59:51.700Z,50.12
